Time;durP1;ratioP1;P1;durP2;ratioP2;P2;SDS_P1;SDS_P2;PMS_P1;PMS_P2;Temp;Humidity;BMP_temperature;BMP_pressure;BME280_temperature;BME280_humidity;BME280_pressure;Samples;Min_cycle;Max_cycle;Signal;HPM_P1;HPM_P2
2021/01/08 00:01:46;;;;;;;6.93;6.05;;;2.20;59.80;;;;;;4998055;28;20022;-73
2021/01/08 00:04:13;;;;;;;8.82;7.45;;;2.20;56.30;;;;;;4999304;28;20023;-73
2021/01/08 00:06:39;;;;;;;9.10;7.30;;;2.20;47.40;;;;;;4980811;28;20019;-74
2021/01/08 00:09:04;;;;;;;7.85;6.72;;;2.20;41.60;;;;;;4998502;28;20269;-73
2021/01/08 00:11:34;;;;;;;9.55;7.32;;;2.20;47.10;;;;;;5005046;28;20026;-74
2021/01/08 00:14:01;;;;;;;9.05;7.38;;;2.20;52.00;;;;;;5018406;28;20030;-74
2021/01/08 00:16:27;;;;;;;10.68;7.60;;;2.20;50.50;;;;;;5018204;28;20034;-72
2021/01/08 00:18:53;;;;;;;8.88;7.22;;;2.20;68.20;;;;;;5017636;28;20038;-73
2021/01/08 00:21:18;;;;;;;10.38;7.72;;;2.20;71.60;;;;;;4999644;28;20026;-72
2021/01/08 00:23:44;;;;;;;9.00;6.97;;;2.20;73.60;;;;;;5020060;28;20033;-72
2021/01/08 00:26:09;;;;;;;8.98;6.95;;;2.20;72.50;;;;;;5017093;28;20392;-72
2021/01/08 00:28:35;;;;;;;8.85;7.22;;;2.20;65.10;;;;;;5036124;28;20029;-72
2021/01/08 00:31:00;;;;;;;7.93;6.30;;;2.10;64.00;;;;;;5019559;28;20041;-74
2021/01/08 00:33:27;;;;;;;10.45;7.70;;;2.10;67.30;;;;;;5017911;28;20029;-72
2021/01/08 00:35:52;;;;;;;9.13;7.60;;;2.10;76.90;;;;;;5017366;28;20480;-74
2021/01/08 00:38:18;;;;;;;8.45;7.38;;;2.10;81.60;;;;;;5016523;28;20026;-73
2021/01/08 00:40:44;;;;;;;8.48;7.55;;;2.10;87.10;;;;;;5016201;28;20032;-72
2021/01/08 00:43:09;;;;;;;8.75;7.35;;;2.10;92.90;;;;;;5017509;28;20034;-73
2021/01/08 00:45:36;;;;;;;9.02;7.40;;;2.20;95.30;;;;;;5017288;28;20037;-71
2021/01/08 00:48:01;;;;;;;8.82;7.55;;;2.20;97.40;;;;;;5017532;28;20029;-73
2021/01/08 00:50:27;;;;;;;8.32;6.28;;;2.20;98.10;;;;;;5017712;28;20105;-73
2021/01/08 00:52:52;;;;;;;9.52;7.65;;;2.10;97.80;;;;;;5000388;28;20108;-72
2021/01/08 00:55:18;;;;;;;8.32;7.03;;;2.10;99.50;;;;;;5016058;28;20022;-74
2021/01/08 00:57:44;;;;;;;9.02;6.88;;;2.10;95.40;;;;;;4998984;28;20037;-74
2021/01/08 01:00:10;;;;;;;9.60;7.93;;;2.10;91.60;;;;;;5016001;28;20379;-72
2021/01/08 01:02:35;;;;;;;8.27;6.68;;;2.10;98.70;;;;;;5017745;28;20116;-72
2021/01/08 01:05:02;;;;;;;8.10;7.13;;;2.10;97.80;;;;;;5017627;28;20030;-74
2021/01/08 01:07:28;;;;;;;8.00;6.68;;;2.10;92.30;;;;;;4999815;28;20032;-71
2021/01/08 01:09:54;;;;;;;8.30;7.18;;;2.10;93.00;;;;;;5017155;28;20093;-72
2021/01/08 01:12:19;;;;;;;9.10;6.25;;;2.10;99.90;;;;;;5017713;28;20025;-73
2021/01/08 01:14:45;;;;;;;8.20;6.55;;;2.10;95.50;;;;;;5016871;28;20033;-72
2021/01/08 01:17:11;;;;;;;7.88;5.47;;;2.10;99.90;;;;;;4998524;28;20473;-72
2021/01/08 01:19:37;;;;;;;7.97;5.97;;;2.10;60.20;;;;;;4992658;28;20030;-71
2021/01/08 01:22:03;;;;;;;8.23;6.10;;;2.10;82.90;;;;;;5015505;28;20109;-72
2021/01/08 01:24:28;;;;;;;8.57;7.00;;;2.10;73.90;;;;;;5015020;28;20535;-72
2021/01/08 01:27:00;;;;;;;7.75;6.47;;;2.10;74.80;;;;;;4997438;28;20021;-72
2021/01/08 01:29:33;;;;;;;7.18;6.20;;;2.10;80.60;;;;;;5015415;28;20033;-72
2021/01/08 01:31:58;;;;;;;8.48;6.43;;;2.10;89.70;;;;;;5015117;28;20489;-72
2021/01/08 01:34:24;;;;;;;8.80;6.18;;;2.10;80.60;;;;;;5015581;28;20089;-72
2021/01/08 01:36:49;;;;;;;9.18;6.68;;;2.10;91.80;;;;;;5016157;28;20513;-72
2021/01/08 01:39:15;;;;;;;7.50;6.45;;;2.00;92.60;;;;;;5016969;28;20010;-75
2021/01/08 01:41:42;;;;;;;7.88;6.65;;;1.90;99.90;;;;;;5026225;28;20026;-73
2021/01/08 01:44:07;;;;;;;7.70;6.50;;;1.90;99.90;;;;;;5026256;28;20022;-72
2021/01/08 01:46:33;;;;;;;7.45;6.38;;;1.80;99.90;;;;;;5027002;28;20068;-72
2021/01/08 01:49:00;;;;;;;9.05;6.65;;;1.80;99.90;;;;;;5020354;28;20041;-72
2021/01/08 01:51:26;;;;;;;9.85;6.80;;;1.80;99.90;;;;;;5015385;28;20021;-73
2021/01/08 01:53:52;;;;;;;8.38;6.57;;;1.70;99.90;;;;;;5014845;28;20026;-73
2021/01/08 01:56:19;;;;;;;9.38;7.47;;;1.70;99.90;;;;;;5015151;28;20022;-73
2021/01/08 01:58:44;;;;;;;7.65;6.57;;;1.60;99.90;;;;;;5015893;28;20050;-73
2021/01/08 02:01:10;;;;;;;10.15;6.95;;;1.60;99.90;;;;;;4996313;28;20036;-73
2021/01/08 02:03:48;;;;;;;9.30;6.53;;;1.50;99.90;;;;;;5015691;28;20508;-73
2021/01/08 02:06:18;;;;;;;8.65;7.00;;;1.50;99.90;;;;;;5013407;28;20022;-72
2021/01/08 02:08:49;;;;;;;7.00;6.13;;;1.50;99.90;;;;;;4998566;28;20121;-72
2021/01/08 02:11:18;;;;;;;8.27;6.55;;;1.50;99.90;;;;;;5007564;28;20022;-72
2021/01/08 02:13:56;;;;;;;7.95;6.63;;;1.50;99.90;;;;;;5016439;28;20531;-72
2021/01/08 02:16:23;;;;;;;9.10;6.68;;;1.60;99.90;;;;;;5014475;28;20069;-72
2021/01/08 02:18:51;;;;;;;9.65;6.18;;;1.60;99.90;;;;;;4996460;28;20048;-72
2021/01/08 02:21:32;;;;;;;7.93;6.30;;;1.70;99.90;;;;;;5013679;28;20091;-72
2021/01/08 02:24:16;;;;;;;7.47;5.45;;;1.70;99.90;;;;;;4996632;28;20408;-72
2021/01/08 02:26:42;;;;;;;8.75;6.93;;;1.70;99.90;;;;;;5014986;28;20025;-72
2021/01/08 02:29:09;;;;;;;8.10;6.97;;;1.70;99.90;;;;;;5013879;28;20104;-72
2021/01/08 02:31:36;;;;;;;8.32;6.05;;;1.70;99.10;;;;;;4996427;28;20026;-72
2021/01/08 02:34:02;;;;;;;7.65;5.82;;;1.70;88.30;;;;;;5014381;28;20033;-72
2021/01/08 02:36:29;;;;;;;5.95;4.97;;;1.70;78.10;;;;;;5013132;28;20030;-72
2021/01/08 02:38:55;;;;;;;7.05;5.25;;;1.80;64.40;;;;;;5012373;28;20113;-72
2021/01/08 02:41:22;;;;;;;6.72;5.88;;;1.80;28.10;;;;;;5011401;28;20084;-73
2021/01/08 02:43:50;;;;;;;6.10;5.45;;;1.80;19.30;;;;;;5012723;28;20065;-72
2021/01/08 02:46:15;;;;;;;6.07;5.03;;;1.80;19.00;;;;;;5012498;28;20034;-73
2021/01/08 02:48:41;;;;;;;6.25;5.07;;;1.90;10.10;;;;;;5011095;28;20046;-73
2021/01/08 02:51:06;;;;;;;8.02;4.88;;;1.90;3.30;;;;;;5012636;28;20547;-74
2021/01/08 02:53:35;;;;;;;6.00;4.75;;;1.90;9.50;;;;;;4976709;28;20129;-72
2021/01/08 02:56:08;;;;;;;5.78;4.32;;;1.90;1.00;;;;;;4993345;28;20057;-73
2021/01/08 02:58:35;;;;;;;5.63;4.93;;;1.90;1.00;;;;;;5007846;28;20018;-73
2021/01/08 03:01:02;;;;;;;5.85;4.82;;;2.00;1.00;;;;;;4995011;28;21288;-73
2021/01/08 03:03:29;;;;;;;9.57;5.22;;;2.00;1.00;;;;;;5012771;28;20100;-72
2021/01/08 03:05:58;;;;;;;6.15;5.15;;;2.00;1.00;;;;;;5012104;28;20563;-73
2021/01/08 03:08:24;;;;;;;6.30;4.93;;;2.00;1.00;;;;;;4994067;28;20503;-71
2021/01/08 03:10:50;;;;;;;6.97;5.50;;;1.90;1.00;;;;;;5012834;28;20478;-72
2021/01/08 03:13:17;;;;;;;5.50;4.80;;;1.90;5.30;;;;;;5012288;28;20028;-72
2021/01/08 03:15:42;;;;;;;5.82;5.22;;;1.90;1.30;;;;;;5012326;28;20513;-72
2021/01/08 03:18:08;;;;;;;6.97;5.00;;;1.90;1.00;;;;;;4993497;28;602527;-72
2021/01/08 03:20:34;;;;;;;6.97;5.47;;;1.90;1.00;;;;;;4995052;28;20030;-72
2021/01/08 03:23:03;;;;;;;6.30;4.75;;;1.80;3.50;;;;;;4994199;28;20390;-73
2021/01/08 03:25:29;;;;;;;6.13;4.75;;;1.80;5.10;;;;;;4994828;28;20661;-73
2021/01/08 03:27:54;;;;;;;5.57;4.97;;;1.80;7.80;;;;;;5012846;28;20029;-73
2021/01/08 03:30:20;;;;;;;6.68;5.35;;;1.80;8.30;;;;;;5015836;28;20030;-73
2021/01/08 03:32:46;;;;;;;6.78;5.72;;;1.80;7.80;;;;;;5021983;28;20026;-73
2021/01/08 03:35:11;;;;;;;8.10;6.07;;;1.80;9.80;;;;;;5013424;28;20057;-73
2021/01/08 03:37:37;;;;;;;7.47;5.50;;;1.80;11.50;;;;;;5012588;28;20048;-73
2021/01/08 03:40:05;;;;;;;6.28;5.20;;;1.80;10.10;;;;;;5012332;28;20018;-73
2021/01/08 03:42:31;;;;;;;6.88;5.57;;;1.80;16.70;;;;;;4994985;28;20091;-73
2021/01/08 03:44:56;;;;;;;6.45;5.18;;;1.80;28.60;;;;;;4990857;28;20559;-73
2021/01/08 03:47:22;;;;;;;7.80;6.10;;;1.80;25.20;;;;;;5002551;28;20117;-72
2021/01/08 03:49:47;;;;;;;7.07;4.88;;;1.80;26.50;;;;;;5013642;28;20497;-71
2021/01/08 03:52:13;;;;;;;7.45;5.50;;;1.80;19.00;;;;;;5013958;28;20034;-71
2021/01/08 03:54:38;;;;;;;6.97;6.07;;;1.70;29.90;;;;;;5014004;28;20022;-74
2021/01/08 03:57:04;;;;;;;7.68;5.82;;;1.70;38.60;;;;;;5013165;28;20018;-72
2021/01/08 03:59:30;;;;;;;6.75;5.70;;;1.70;42.60;;;;;;5014469;28;20026;-73
2021/01/08 04:01:56;;;;;;;7.03;5.80;;;1.70;43.10;;;;;;5013285;28;20029;-73
2021/01/08 04:04:21;;;;;;;6.47;5.47;;;1.70;45.80;;;;;;5014154;28;20029;-73
2021/01/08 04:06:47;;;;;;;6.53;5.40;;;1.70;37.50;;;;;;5013341;28;20580;-73
2021/01/08 04:09:12;;;;;;;7.07;5.90;;;1.70;53.20;;;;;;5013580;28;20397;-72
2021/01/08 04:11:38;;;;;;;6.43;5.65;;;1.70;42.20;;;;;;5012895;28;20437;-72
2021/01/08 04:14:04;;;;;;;9.98;5.57;;;1.70;36.90;;;;;;5013734;28;20117;-73
2021/01/08 04:16:38;;;;;;;7.15;5.85;;;1.70;32.90;;;;;;4996050;28;20431;-72
2021/01/08 04:19:04;;;;;;;8.60;6.63;;;1.70;43.90;;;;;;5013309;28;20509;-72
2021/01/08 04:21:29;;;;;;;6.50;5.75;;;1.70;44.00;;;;;;5013647;28;20038;-72
2021/01/08 04:23:55;;;;;;;7.40;5.90;;;1.70;37.70;;;;;;5024828;28;20090;-72
2021/01/08 04:26:21;;;;;;;7.95;6.00;;;1.70;38.90;;;;;;5025729;28;20398;-73
2021/01/08 04:28:46;;;;;;;7.65;5.32;;;1.70;47.00;;;;;;5013593;28;20649;-72
2021/01/08 04:31:13;;;;;;;7.00;5.65;;;1.70;40.50;;;;;;5012247;28;20030;-72
2021/01/08 04:33:40;;;;;;;7.05;5.68;;;1.70;50.60;;;;;;5014783;28;20076;-72
2021/01/08 04:36:10;;;;;;;6.55;5.72;;;1.70;62.40;;;;;;5015592;28;20034;-72
2021/01/08 04:38:39;;;;;;;7.82;5.50;;;1.80;51.60;;;;;;5015604;28;20582;-73
2021/01/08 04:41:07;;;;;;;7.30;6.10;;;1.80;24.00;;;;;;5016639;28;20030;-73
2021/01/08 04:43:37;;;;;;;6.65;5.35;;;1.80;41.40;;;;;;4995699;28;20023;-72
2021/01/08 04:46:20;;;;;;;7.43;5.65;;;1.80;35.80;;;;;;5014149;28;20029;-73
2021/01/08 04:48:46;;;;;;;6.55;5.40;;;1.80;42.80;;;;;;4999319;28;20081;-73
2021/01/08 04:51:13;;;;;;;8.95;6.90;;;1.80;32.40;;;;;;5016164;28;20107;-72
2021/01/08 04:53:39;;;;;;;6.88;5.88;;;1.80;27.10;;;;;;5016191;28;20021;-73
2021/01/08 04:56:10;;;;;;;7.70;5.95;;;1.80;34.60;;;;;;5000274;28;20022;-73
2021/01/08 04:58:36;;;;;;;7.18;5.85;;;1.80;40.40;;;;;;5015835;28;20091;-72
2021/01/08 05:01:03;;;;;;;9.18;6.35;;;1.80;29.80;;;;;;5016020;28;20041;-72
2021/01/08 05:03:30;;;;;;;7.07;6.38;;;1.80;39.00;;;;;;5015345;28;20034;-73
2021/01/08 05:05:56;;;;;;;8.77;6.90;;;1.80;42.90;;;;;;4997626;28;20454;-72
2021/01/08 05:08:22;;;;;;;8.55;5.75;;;1.70;48.90;;;;;;5016745;28;20061;-72
2021/01/08 05:10:49;;;;;;;6.93;5.45;;;1.70;42.40;;;;;;5015708;28;20041;-73
2021/01/08 05:13:15;;;;;;;10.48;7.22;;;1.80;23.20;;;;;;5016475;28;20417;-73
2021/01/08 05:15:50;;;;;;;6.43;5.55;;;1.90;28.80;;;;;;5001541;28;20390;-73
2021/01/08 05:18:16;;;;;;;7.55;5.70;;;1.90;12.50;;;;;;5014821;28;20026;-71
2021/01/08 05:20:41;;;;;;;6.72;5.90;;;1.90;22.50;;;;;;5014958;28;20026;-73
2021/01/08 05:23:10;;;;;;;8.38;6.60;;;1.90;26.00;;;;;;4997116;28;20033;-73
2021/01/08 05:25:35;;;;;;;9.13;6.93;;;1.90;10.70;;;;;;5014899;28;20026;-73
2021/01/08 05:28:01;;;;;;;8.63;5.97;;;1.80;23.10;;;;;;5015978;28;20034;-72
2021/01/08 05:30:27;;;;;;;8.32;6.75;;;1.90;20.80;;;;;;4998129;28;20486;-72
2021/01/08 05:32:58;;;;;;;6.78;5.90;;;1.80;25.80;;;;;;5015097;28;20029;-73
2021/01/08 05:35:24;;;;;;;;;;;1.80;35.50;;;;;;5014979;28;20363;-72
2021/01/08 05:37:53;;;;;;;7.15;5.10;;;1.80;34.60;;;;;;4997350;28;19917;-72
2021/01/08 05:40:25;;;;;;;7.13;5.78;;;1.80;51.10;;;;;;5014330;28;20037;-72
2021/01/08 05:42:55;;;;;;;7.35;6.40;;;1.80;48.30;;;;;;5015013;28;20026;-72
2021/01/08 05:45:21;;;;;;;7.22;6.10;;;1.70;52.50;;;;;;5013749;28;20478;-72
2021/01/08 05:47:49;;;;;;;6.63;5.88;;;1.70;59.00;;;;;;5014441;28;20034;-72
2021/01/08 05:50:17;;;;;;;7.65;5.78;;;1.70;53.10;;;;;;5013757;28;20506;-72
2021/01/08 05:52:46;;;;;;;10.98;6.40;;;1.70;50.90;;;;;;5005868;28;20060;-73
2021/01/08 05:55:12;;;;;;;7.10;5.45;;;1.80;45.00;;;;;;5014158;28;20501;-73
2021/01/08 05:57:39;;;;;;;6.25;5.63;;;1.70;63.60;;;;;;5014403;28;20452;-73
2021/01/08 06:00:07;;;;;;;8.50;6.38;;;1.80;55.00;;;;;;5014578;28;20026;-72
2021/01/08 06:02:34;;;;;;;6.45;4.88;;;1.80;31.60;;;;;;5014339;28;20037;-72
2021/01/08 06:04:59;;;;;;;7.35;5.22;;;1.80;44.90;;;;;;5014453;28;20049;-71
2021/01/08 06:07:28;;;;;;;6.97;5.68;;;1.80;45.30;;;;;;5013545;28;20119;-72
2021/01/08 06:09:59;;;;;;;9.43;7.45;;;1.80;57.30;;;;;;5014200;28;20022;-72
2021/01/08 06:12:24;;;;;;;7.25;5.25;;;1.80;56.00;;;;;;4993401;28;20085;-73
2021/01/08 06:14:51;;;;;;;5.97;4.75;;;1.80;45.00;;;;;;5007258;28;20753;-73
2021/01/08 06:17:19;;;;;;;6.00;5.10;;;1.80;38.90;;;;;;5013989;28;20113;-72
2021/01/08 06:19:45;;;;;;;6.35;5.28;;;1.80;33.10;;;;;;4995933;28;20096;-73
2021/01/08 06:22:11;;;;;;;6.43;5.03;;;1.80;31.40;;;;;;5013427;28;20026;-73
2021/01/08 06:24:37;;;;;;;8.18;5.38;;;1.90;34.40;;;;;;5013657;28;20500;-73
2021/01/08 06:27:03;;;;;;;5.32;4.75;;;1.90;43.90;;;;;;5013611;28;20051;-72
2021/01/08 06:29:33;;;;;;;7.70;4.93;;;1.90;19.50;;;;;;5013627;28;20030;-71
2021/01/08 06:32:13;;;;;;;6.82;5.43;;;1.90;18.60;;;;;;5013593;28;20454;-71
2021/01/08 06:34:45;;;;;;;7.00;5.22;;;1.90;27.70;;;;;;4995640;28;20037;-71
2021/01/08 06:37:18;;;;;;;7.90;4.80;;;1.90;28.20;;;;;;5013894;28;20026;-73
2021/01/08 06:39:46;;;;;;;6.53;4.88;;;1.90;29.20;;;;;;4995526;28;20025;-73
2021/01/08 06:42:28;;;;;;;6.65;5.20;;;1.90;28.10;;;;;;4996716;28;20030;-72
2021/01/08 06:44:58;;;;;;;6.10;4.95;;;2.00;35.50;;;;;;5007387;28;20196;-73
2021/01/08 06:47:27;;;;;;;4.53;4.00;;;2.00;17.90;;;;;;4995916;28;20037;-73
2021/01/08 06:49:54;;;;;;;8.55;5.43;;;2.00;6.20;;;;;;5011785;28;20172;-73
2021/01/08 06:52:24;;;;;;;5.13;4.53;;;2.00;8.00;;;;;;5012856;28;20029;-72
2021/01/08 06:54:54;;;;;;;12.35;7.28;;;2.00;11.10;;;;;;5013086;28;20036;-73
2021/01/08 06:57:21;;;;;;;12.17;6.40;;;2.00;15.40;;;;;;5012470;28;20510;-72
2021/01/08 07:00:01;;;;;;;5.70;4.82;;;2.00;31.80;;;;;;5013434;28;20088;-72
2021/01/08 07:02:30;;;;;;;5.77;4.77;;;2.10;14.00;;;;;;5012668;28;20255;-72
2021/01/08 07:04:56;;;;;;;5.07;4.53;;;2.10;1.00;;;;;;5012745;28;20285;-72
2021/01/08 07:07:24;;;;;;;5.85;4.43;;;2.10;1.00;;;;;;5012425;28;20420;-72
2021/01/08 07:09:50;;;;;;;5.20;4.00;;;2.00;3.80;;;;;;5013776;28;20026;-74
2021/01/08 07:12:16;;;;;;;6.05;5.00;;;2.00;1.00;;;;;;5012706;28;20026;-72
2021/01/08 07:14:44;;;;;;;7.38;4.53;;;2.10;1.00;;;;;;5012983;28;20032;-72
2021/01/08 07:17:12;;;;;;;5.68;4.75;;;2.10;1.00;;;;;;5013275;28;20025;-72
2021/01/08 07:19:42;;;;;;;4.70;4.20;;;2.20;13.10;;;;;;5012531;28;20026;-72
2021/01/08 07:22:07;;;;;;;7.63;5.00;;;2.20;1.00;;;;;;5012667;28;20041;-72
2021/01/08 07:24:38;;;;;;;5.72;4.68;;;2.20;1.00;;;;;;5012804;28;20338;-72
2021/01/08 07:27:24;;;;;;;4.60;4.20;;;2.30;1.00;;;;;;5013152;28;20367;-72
2021/01/08 07:29:52;;;;;;;6.78;4.57;;;2.20;1.00;;;;;;5013480;28;20021;-72
2021/01/08 07:32:48;;;;;;;7.05;5.25;;;2.20;1.00;;;;;;5013407;28;20054;-73
2021/01/08 07:35:27;;;;;;;5.47;4.85;;;2.20;1.00;;;;;;5010595;28;20045;-73
2021/01/08 07:38:09;;;;;;;5.82;5.03;;;2.20;1.00;;;;;;4995332;28;20037;-73
2021/01/08 07:40:40;;;;;;;6.18;5.35;;;2.30;1.00;;;;;;5012584;28;20419;-73
2021/01/08 07:43:10;;;;;;;7.13;5.38;;;2.40;1.00;;;;;;5000755;28;20068;-73
2021/01/08 07:45:55;;;;;;;6.80;4.75;;;2.30;62.60;;;;;;4996987;28;20034;-72
2021/01/08 07:48:34;;;;;;;6.43;4.82;;;2.40;1.00;;;;;;5014591;28;20392;-71
2021/01/08 07:51:01;;;;;;;7.75;5.28;;;2.30;1.00;;;;;;4995634;28;20024;-72
2021/01/08 07:53:42;;;;;;;6.30;5.55;;;2.30;1.00;;;;;;4980170;28;20027;-73
2021/01/08 07:56:09;;;;;;;6.15;5.05;;;2.20;1.00;;;;;;5014767;28;20022;-73
2021/01/08 07:58:36;;;;;;;6.45;4.93;;;2.30;1.00;;;;;;5016216;28;20045;-73
2021/01/08 08:01:05;;;;;;;8.30;5.65;;;2.30;4.80;;;;;;5019054;28;20552;-72
2021/01/08 08:03:39;;;;;;;7.20;4.95;;;2.30;14.50;;;;;;5015680;28;20113;-72
2021/01/08 08:06:06;;;;;;;6.00;5.28;;;2.30;2.20;;;;;;4999558;28;20108;-73
2021/01/08 08:08:32;;;;;;;5.57;4.88;;;2.30;1.00;;;;;;5019309;28;20034;-74
2021/01/08 08:11:16;;;;;;;6.47;5.22;;;2.30;1.00;;;;;;5020271;28;20037;-73
2021/01/08 08:13:43;;;;;;;4.95;4.45;;;2.20;1.00;;;;;;5003177;28;20105;-71
2021/01/08 08:16:12;;;;;;;5.35;3.88;;;2.20;8.50;;;;;;5001830;28;20123;-73
2021/01/08 08:18:51;;;;;;;5.38;4.60;;;2.20;4.00;;;;;;5014063;28;20413;-72
2021/01/08 08:21:16;;;;;;;5.18;4.28;;;2.20;2.30;;;;;;5021739;28;20489;-74
2021/01/08 08:23:42;;;;;;;6.78;4.15;;;2.30;4.10;;;;;;5020671;28;20105;-73
2021/01/08 08:26:08;;;;;;;4.97;4.45;;;2.30;6.30;;;;;;5016639;28;20026;-73
2021/01/08 08:28:33;;;;;;;5.18;4.20;;;2.30;24.60;;;;;;5017414;28;20113;-72
2021/01/08 08:31:02;;;;;;;5.63;4.00;;;2.40;19.20;;;;;;5016393;28;20022;-72
2021/01/08 08:33:27;;;;;;;4.22;3.80;;;2.40;14.00;;;;;;5017153;28;20121;-73
2021/01/08 08:35:53;;;;;;;5.45;4.35;;;2.40;12.40;;;;;;5015825;28;20467;-73
2021/01/08 08:38:19;;;;;;;5.07;3.80;;;2.40;17.30;;;;;;5015967;28;20022;-74
2021/01/08 08:40:44;;;;;;;4.25;3.80;;;2.40;24.40;;;;;;5017027;28;20085;-73
2021/01/08 08:43:20;;;;;;;3.72;3.38;;;2.40;24.40;;;;;;5017747;28;20101;-72
2021/01/08 08:45:45;;;;;;;5.03;3.33;;;2.40;18.60;;;;;;5016420;28;20030;-73
2021/01/08 08:48:11;;;;;;;4.57;3.28;;;2.40;24.10;;;;;;5016172;28;20029;-72
2021/01/08 08:50:43;;;;;;;4.63;4.18;;;2.50;20.50;;;;;;5018970;28;20046;-72
2021/01/08 08:53:13;;;;;;;4.90;3.40;;;2.50;34.10;;;;;;5020263;28;20093;-73
2021/01/08 08:55:40;;;;;;;6.03;3.03;;;2.50;39.30;;;;;;5016232;28;20029;-72
2021/01/08 08:58:11;;;;;;;4.03;3.60;;;2.50;26.10;;;;;;4995438;28;20580;-72
2021/01/08 09:00:37;;;;;;;;;;;2.50;73.10;;;;;;5016031;28;20022;-72
2021/01/08 09:03:15;;;;;;;3.22;2.92;;;2.50;92.50;;;;;;5015725;28;19909;-72
2021/01/08 09:05:42;;;;;;;3.42;3.13;;;2.50;57.70;;;;;;4998314;28;20026;-73
2021/01/08 09:08:24;;;;;;;10.82;8.85;;;2.60;40.80;;;;;;5015714;28;20041;-72
2021/01/08 09:11:18;;;;;;;3.50;2.67;;;2.60;48.40;;;;;;5015979;28;20029;-74
2021/01/08 09:13:54;;;;;;;3.33;3.03;;;2.60;21.70;;;;;;5000325;28;20026;-73
2021/01/08 09:16:27;;;;;;;3.53;3.17;;;2.70;1.00;;;;;;5015929;28;20041;-73
2021/01/08 09:19:20;;;;;;;2.97;2.65;;;2.60;24.20;;;;;;5015377;28;20112;-72
2021/01/08 09:21:48;;;;;;;3.10;2.78;;;2.60;27.20;;;;;;5001258;28;20032;-74
2021/01/08 09:24:20;;;;;;;2.92;2.72;;;2.60;28.20;;;;;;5019051;28;20402;-73
2021/01/08 09:26:47;;;;;;;3.33;3.03;;;2.70;22.90;;;;;;5020536;28;20040;-72
2021/01/08 09:29:29;;;;;;;2.50;2.30;;;2.70;18.10;;;;;;5020768;28;20029;-73
2021/01/08 09:31:56;;;;;;;2.83;2.25;;;2.60;10.20;;;;;;4984161;28;20393;-73
2021/01/08 09:34:23;;;;;;;3.40;2.58;;;2.60;31.30;;;;;;4991119;28;20025;-72
2021/01/08 09:36:50;;;;;;;3.38;3.08;;;2.60;45.80;;;;;;4995509;28;20033;-72
2021/01/08 09:39:17;;;;;;;3.28;2.65;;;2.60;50.50;;;;;;5013752;28;20030;-72
2021/01/08 09:41:44;;;;;;;3.00;2.67;;;2.60;21.00;;;;;;5016784;28;20033;-74
2021/01/08 09:44:14;;;;;;;2.83;2.50;;;2.60;23.80;;;;;;4983810;28;20038;-73
2021/01/08 09:46:55;;;;;;;2.73;2.50;;;2.60;24.80;;;;;;4998525;28;20445;-72
2021/01/08 09:49:21;;;;;;;3.83;2.72;;;2.70;9.20;;;;;;5006073;28;20017;-72
2021/01/08 09:51:47;;;;;;;4.07;2.78;;;2.70;1.00;;;;;;5016864;28;20029;-72
2021/01/08 09:54:12;;;;;;;3.20;2.90;;;2.70;1.00;;;;;;5017051;28;20036;-72
2021/01/08 09:56:38;;;;;;;2.47;2.25;;;2.80;1.00;;;;;;5016314;28;20022;-72
2021/01/08 09:59:16;;;;;;;3.28;2.92;;;2.80;1.00;;;;;;5015342;28;20057;-73
2021/01/08 10:02:04;;;;;;;2.33;2.00;;;2.90;1.00;;;;;;5015282;28;20061;-73
2021/01/08 10:04:35;;;;;;;3.40;2.92;;;3.10;1.00;;;;;;5017040;28;20428;-72
2021/01/08 10:07:04;;;;;;;2.63;2.40;;;3.10;1.00;;;;;;5017362;28;20036;-73
2021/01/08 10:09:50;;;;;;;2.80;2.33;;;3.10;1.00;;;;;;5017229;28;20272;-73
2021/01/08 10:12:22;;;;;;;2.80;2.20;;;3.00;1.00;;;;;;5019227;28;20045;-72
2021/01/08 10:14:48;;;;;;;3.80;2.25;;;3.00;1.00;;;;;;5017829;28;20030;-72
2021/01/08 10:17:15;;;;;;;2.42;2.22;;;3.00;1.00;;;;;;5016802;28;20037;-72
2021/01/08 10:19:43;;;;;;;4.20;2.40;;;2.90;1.00;;;;;;5015104;28;20021;-74
2021/01/08 10:22:09;;;;;;;3.00;2.45;;;2.90;1.00;;;;;;5015609;28;20060;-73
2021/01/08 10:24:34;;;;;;;3.83;2.58;;;3.00;1.00;;;;;;5014928;28;20018;-73
2021/01/08 10:27:00;;;;;;;3.47;2.58;;;2.90;1.00;;;;;;5014588;28;20022;-73
2021/01/08 10:29:38;;;;;;;3.05;2.42;;;3.00;1.00;;;;;;5014492;28;20115;-74
2021/01/08 10:32:13;;;;;;;3.30;2.97;;;3.10;1.00;;;;;;5015653;28;20018;-73
2021/01/08 10:34:41;;;;;;;2.72;2.53;;;3.10;1.00;;;;;;5017105;28;20029;-73
2021/01/08 10:37:15;;;;;;;2.58;2.38;;;3.10;1.00;;;;;;5015975;28;20049;-73
2021/01/08 10:39:40;;;;;;;2.75;2.42;;;3.10;99.90;;;;;;5016294;28;20025;-72
2021/01/08 10:42:06;;;;;;;3.25;2.92;;;3.10;1.00;;;;;;5016064;28;20520;-74
2021/01/08 10:44:32;;;;;;;2.60;2.35;;;3.00;1.00;;;;;;4996206;28;20033;-73
2021/01/08 10:46:57;;;;;;;2.80;2.15;;;3.00;1.00;;;;;;5016300;28;20022;-75
2021/01/08 10:49:23;;;;;;;3.25;2.53;;;3.00;1.00;;;;;;5014349;28;20021;-75
2021/01/08 10:51:49;;;;;;;3.35;3.05;;;2.90;1.00;;;;;;4999140;28;20527;-73
2021/01/08 10:54:17;;;;;;;3.28;2.58;;;3.00;1.00;;;;;;5014810;28;20422;-73
2021/01/08 10:56:43;;;;;;;2.58;2.38;;;3.10;1.00;;;;;;5014292;28;20486;-71
2021/01/08 10:59:11;;;;;;;3.55;2.92;;;3.00;1.00;;;;;;5014098;28;20040;-71
2021/01/08 11:01:44;;;;;;;4.20;3.80;;;3.20;1.00;;;;;;4996363;28;20041;-69
2021/01/08 11:04:10;;;;;;;4.03;3.63;;;3.20;99.90;;;;;;5013555;28;20038;-71
2021/01/08 11:06:38;;;;;;;3.47;3.17;;;3.20;99.90;;;;;;5013069;28;20022;-71
2021/01/08 11:09:05;;;;;;;4.00;3.10;;;3.30;99.90;;;;;;4995378;28;20112;-72
2021/01/08 11:11:31;;;;;;;4.97;3.40;;;3.30;99.90;;;;;;5013515;28;20117;-70
2021/01/08 11:13:56;;;;;;;3.83;3.40;;;3.50;99.90;;;;;;4996116;28;20049;-72
2021/01/08 11:16:22;;;;;;;4.15;3.70;;;3.30;99.90;;;;;;4991373;28;20026;-73
2021/01/08 11:18:47;;;;;;;4.13;3.40;;;3.30;1.00;;;;;;5013452;28;20444;-71
2021/01/08 11:21:20;;;;;;;4.07;3.67;;;3.40;99.90;;;;;;5013494;28;20038;-72
2021/01/08 11:23:47;;;;;;;4.72;4.05;;;3.60;99.90;;;;;;5012939;28;20044;-70
2021/01/08 11:26:14;;;;;;;4.28;3.03;;;3.50;99.90;;;;;;5013364;28;20026;-74
2021/01/08 11:28:39;;;;;;;4.47;3.80;;;3.30;99.90;;;;;;5013076;28;20496;-71
2021/01/08 11:31:05;;;;;;;4.82;3.85;;;3.00;99.90;;;;;;4996119;28;20052;-71
2021/01/08 11:33:31;;;;;;;5.13;4.15;;;3.00;99.90;;;;;;5013557;28;20030;-71
2021/01/08 11:35:56;;;;;;;5.85;4.18;;;3.00;99.90;;;;;;4996252;28;20025;-71
2021/01/08 11:38:22;;;;;;;3.35;2.70;;;3.20;99.90;;;;;;5013502;28;20029;-72
2021/01/08 11:40:49;;;;;;;3.80;3.40;;;3.20;99.90;;;;;;5013829;28;20160;-71
2021/01/08 11:43:14;;;;;;;5.90;3.72;;;3.20;99.90;;;;;;4993366;28;20041;-71
2021/01/08 11:45:40;;;;;;;4.82;3.67;;;3.20;99.90;;;;;;5016977;28;20034;-71
2021/01/08 11:48:06;;;;;;;4.43;3.47;;;3.10;99.90;;;;;;5017542;28;20038;-73
2021/01/08 11:50:31;;;;;;;4.13;3.35;;;3.00;99.90;;;;;;5016345;28;20022;-71
2021/01/08 11:52:57;;;;;;;6.57;4.18;;;3.00;99.90;;;;;;4999008;28;20518;-71
2021/01/08 11:55:23;;;;;;;4.75;3.63;;;2.90;99.90;;;;;;5017234;28;20030;-72
2021/01/08 11:57:48;;;;;;;4.40;3.47;;;2.80;99.90;;;;;;5012089;28;20038;-73
2021/01/08 12:00:14;;;;;;;5.70;3.50;;;2.90;99.90;;;;;;5014003;28;20029;-71
2021/01/08 12:02:40;;;;;;;3.40;2.83;;;2.80;99.90;;;;;;5018442;28;20543;-71
2021/01/08 12:05:06;;;;;;;4.13;3.60;;;2.70;99.90;;;;;;5018442;28;20034;-72
2021/01/08 12:07:33;;;;;;;4.53;3.20;;;2.70;99.90;;;;;;5018529;28;20112;-72
2021/01/08 12:09:58;;;;;;;5.35;3.47;;;2.70;99.90;;;;;;5000180;28;20029;-72
2021/01/08 12:12:24;;;;;;;5.43;3.65;;;2.80;99.90;;;;;;4997196;28;20026;-71
2021/01/08 12:14:49;;;;;;;4.30;3.88;;;2.80;99.90;;;;;;5011414;28;20026;-71
2021/01/08 12:17:15;;;;;;;5.00;3.45;;;2.80;99.90;;;;;;5018665;28;20038;-71
2021/01/08 12:19:40;;;;;;;5.05;3.10;;;2.80;99.90;;;;;;5037201;28;20034;-71
2021/01/08 12:22:06;;;;;;;4.70;4.20;;;2.80;99.90;;;;;;5039193;28;20028;-70
2021/01/08 12:24:32;;;;;;;4.40;3.63;;;2.80;99.90;;;;;;5039279;28;20060;-71
2021/01/08 12:26:58;;;;;;;6.38;3.42;;;2.80;99.90;;;;;;5039559;28;20033;-71
2021/01/08 12:29:24;;;;;;;4.35;2.90;;;2.80;99.90;;;;;;5036265;28;20537;-72
2021/01/08 12:31:50;;;;;;;5.38;3.80;;;2.70;99.90;;;;;;5021958;28;20152;-70
2021/01/08 12:34:16;;;;;;;4.47;3.17;;;2.50;99.90;;;;;;5020230;28;20087;-71
2021/01/08 12:36:42;;;;;;;7.38;5.80;;;2.60;99.90;;;;;;5021080;28;20041;-73
2021/01/08 12:39:09;;;;;;;4.10;3.42;;;2.60;99.90;;;;;;5000939;28;20173;-73
2021/01/08 12:41:35;;;;;;;5.18;4.20;;;2.70;99.90;;;;;;4981671;28;20057;-71
2021/01/08 12:44:00;;;;;;;5.47;4.10;;;2.70;99.90;;;;;;5013279;28;20030;-72
2021/01/08 12:46:26;;;;;;;5.68;4.50;;;2.60;99.90;;;;;;5018131;28;20041;-74
2021/01/08 12:48:52;;;;;;;5.38;4.18;;;2.70;99.90;;;;;;5000546;28;20034;-72
2021/01/08 12:51:18;;;;;;;5.35;3.97;;;2.70;99.90;;;;;;5018019;28;20030;-70
2021/01/08 12:53:44;;;;;;;6.35;4.00;;;2.90;99.90;;;;;;5017960;28;20018;-71
2021/01/08 12:56:10;;;;;;;4.53;3.80;;;2.90;99.90;;;;;;5000007;28;20394;-71
2021/01/08 12:58:36;;;;;;;4.50;4.03;;;2.80;99.90;;;;;;5017696;28;20029;-71
2021/01/08 13:01:02;;;;;;;4.05;3.65;;;3.00;99.90;;;;;;5017219;28;20111;-72
2021/01/08 13:03:27;;;;;;;4.35;3.75;;;3.00;99.90;;;;;;4999529;28;20096;-72
2021/01/08 13:05:53;;;;;;;4.03;3.63;;;3.00;99.90;;;;;;5016817;28;20105;-71